Time;durP1;ratioP1;P1;durP2;ratioP2;P2;SDS_P1;SDS_P2;PMS_P1;PMS_P2;Temp;Humidity;BMP_temperature;BMP_pressure;BME280_temperature;BME280_humidity;BME280_pressure;Samples;Min_cycle;Max_cycle;Signal;HPM_P1;HPM_P2
2023/05/18 00:00:44;;;;;;;168.40;9.18;;;;;;;;;;5015669;28;20054;-52
2023/05/18 00:03:09;;;;;;;170.75;8.85;;;;;;;;;;5012256;28;20394;-53
2023/05/18 00:05:35;;;;;;;173.93;9.00;;;;;;;;;;5010110;28;20488;-56
2023/05/18 00:08:01;;;;;;;127.15;8.07;;;;;;;;;;5015567;28;20922;-54
2023/05/18 00:10:26;;;;;;;155.27;7.57;;;;;;;;;;5012885;28;20090;-55
2023/05/18 00:12:51;;;;;;;156.73;8.27;;;;;;;;;;5009652;28;20017;-55
2023/05/18 00:15:17;;;;;;;179.90;9.25;;;;;;;;;;5015082;28;20025;-55
2023/05/18 00:17:42;;;;;;;199.43;9.73;;;;;;;;;;5012098;28;20016;-53
2023/05/18 00:20:08;;;;;;;190.30;9.30;;;;;;;;;;5014665;28;20025;-55
2023/05/18 00:22:34;;;;;;;177.60;8.93;;;;;;;;;;5015076;28;20793;-55
2023/05/18 00:24:59;;;;;;;211.65;10.23;;;;;;;;;;5011048;28;20021;-56
2023/05/18 00:27:24;;;;;;;231.95;10.90;;;;;;;;;;5014049;28;20038;-54
2023/05/18 00:29:50;;;;;;;206.48;10.23;;;;;;;;;;5014899;28;20033;-53
2023/05/18 00:32:15;;;;;;;237.57;11.37;;;;;;;;;;5013963;28;20671;-55
2023/05/18 00:34:40;;;;;;;175.43;9.77;;;;;;;;;;5010861;28;20607;-56
2023/05/18 00:37:05;;;;;;;179.52;9.82;;;;;;;;;;5010076;28;20068;-56
2023/05/18 00:39:31;;;;;;;136.32;8.02;;;;;;;;;;5014652;28;20707;-55
2023/05/18 00:41:56;;;;;;;193.00;9.80;;;;;;;;;;5010300;28;20039;-56
2023/05/18 00:44:21;;;;;;;193.00;9.52;;;;;;;;;;5013158;28;20249;-56
2023/05/18 00:46:46;;;;;;;129.70;7.50;;;;;;;;;;5009576;28;20051;-57
2023/05/18 00:49:11;;;;;;;137.97;7.97;;;;;;;;;;5010764;28;20025;-55
2023/05/18 00:51:37;;;;;;;170.00;8.88;;;;;;;;;;5009733;28;20264;-55
2023/05/18 00:54:03;;;;;;;160.45;8.23;;;;;;;;;;5012774;28;20816;-53
2023/05/18 00:56:32;;;;;;;191.40;9.30;;;;;;;;;;5015769;28;20524;-56
2023/05/18 00:58:59;;;;;;;185.50;9.15;;;;;;;;;;5010704;28;20601;-53
2023/05/18 01:01:27;;;;;;;223.95;10.75;;;;;;;;;;5009440;28;20878;-54
2023/05/18 01:03:55;;;;;;;274.90;12.20;;;;;;;;;;5010005;28;20108;-55
2023/05/18 01:06:21;;;;;;;161.40;8.63;;;;;;;;;;5010595;28;20606;-55
2023/05/18 01:08:47;;;;;;;186.63;9.07;;;;;;;;;;5014509;28;20103;-53
2023/05/18 01:11:30;;;;;;;222.93;10.15;;;;;;;;;;5013399;28;20870;-53
2023/05/18 01:14:01;;;;;;;268.88;11.60;;;;;;;;;;5013349;28;20047;-53
2023/05/18 01:16:33;;;;;;;282.70;12.50;;;;;;;;;;5011990;28;20038;-56
2023/05/18 01:19:18;;;;;;;174.23;8.90;;;;;;;;;;5010169;28;20430;-56
2023/05/18 01:21:56;;;;;;;188.57;9.05;;;;;;;;;;5010543;28;20117;-56
2023/05/18 01:24:24;;;;;;;260.33;11.10;;;;;;;;;;5011757;28;20082;-55
2023/05/18 01:26:56;;;;;;;213.60;9.88;;;;;;;;;;5010190;28;20072;-55
2023/05/18 01:29:21;;;;;;;170.40;8.27;;;;;;;;;;5018957;28;20022;-56
2023/05/18 01:31:47;;;;;;;202.10;9.85;;;;;;;;;;5019507;28;20048;-56
2023/05/18 01:34:12;;;;;;;131.35;7.28;;;;;;;;;;5022851;28;20051;-55
2023/05/18 01:36:37;;;;;;;149.30;8.30;;;;;;;;;;5019678;28;20057;-55
2023/05/18 01:39:02;;;;;;;161.87;8.30;;;;;;;;;;5023596;28;20017;-51
2023/05/18 01:41:29;;;;;;;157.45;7.78;;;;;;;;;;5017739;28;20308;-54
2023/05/18 01:44:16;;;;;;;238.35;10.77;;;;;;;;;;5021204;28;20081;-54
2023/05/18 01:46:47;;;;;;;149.60;8.18;;;;;;;;;;5018118;28;20691;-55
2023/05/18 01:49:16;;;;;;;127.32;7.40;;;;;;;;;;5019336;28;20030;-54
2023/05/18 01:51:43;;;;;;;152.98;8.18;;;;;;;;;;5018763;28;20061;-54
2023/05/18 01:54:09;;;;;;;165.30;8.20;;;;;;;;;;5019321;28;20040;-55
2023/05/18 01:56:35;;;;;;;144.35;7.75;;;;;;;;;;5018400;28;20835;-55
2023/05/18 01:59:01;;;;;;;164.88;8.45;;;;;;;;;;5017275;28;20032;-55
2023/05/18 02:01:26;;;;;;;113.43;7.07;;;;;;;;;;5018678;28;20290;-53
2023/05/18 02:03:52;;;;;;;226.32;10.25;;;;;;;;;;5016890;28;20069;-55
2023/05/18 02:06:17;;;;;;;171.60;9.07;;;;;;;;;;5017298;28;20133;-53
2023/05/18 02:08:42;;;;;;;151.05;8.73;;;;;;;;;;5019106;28;20347;-55
2023/05/18 02:11:08;;;;;;;144.43;8.32;;;;;;;;;;5017350;28;20037;-52
2023/05/18 02:13:33;;;;;;;155.23;9.23;;;;;;;;;;5019026;28;20052;-51
2023/05/18 02:15:58;;;;;;;145.13;7.68;;;;;;;;;;5016826;28;20791;-53
2023/05/18 02:18:25;;;;;;;148.20;8.07;;;;;;;;;;5020468;28;20090;-51
2023/05/18 02:20:57;;;;;;;139.95;7.10;;;;;;;;;;5015510;28;20044;-53
2023/05/18 02:23:22;;;;;;;149.00;8.25;;;;;;;;;;5014073;28;20057;-53
2023/05/18 02:25:47;;;;;;;174.47;8.87;;;;;;;;;;5020980;28;20142;-54
2023/05/18 02:28:12;;;;;;;151.87;8.03;;;;;;;;;;5019352;28;20344;-54
2023/05/18 02:30:38;;;;;;;138.37;8.07;;;;;;;;;;5020165;28;20359;-55
2023/05/18 02:33:03;;;;;;;126.55;7.07;;;;;;;;;;5016532;28;20469;-53
2023/05/18 02:35:28;;;;;;;130.48;7.55;;;;;;;;;;5018171;28;20107;-53
2023/05/18 02:37:54;;;;;;;195.30;9.70;;;;;;;;;;5018114;28;20020;-54
2023/05/18 02:40:19;;;;;;;160.10;7.95;;;;;;;;;;5015201;28;20064;-54
2023/05/18 02:42:45;;;;;;;151.55;8.55;;;;;;;;;;5019282;28;20395;-54
2023/05/18 02:45:10;;;;;;;163.52;8.73;;;;;;;;;;5016174;28;20009;-54
2023/05/18 02:47:35;;;;;;;109.88;7.15;;;;;;;;;;5024102;28;20025;-53
2023/05/18 02:50:00;;;;;;;131.67;7.63;;;;;;;;;;5020122;28;20621;-55
2023/05/18 02:52:26;;;;;;;140.80;8.13;;;;;;;;;;5019749;28;20260;-55
2023/05/18 02:54:53;;;;;;;155.10;8.15;;;;;;;;;;5018204;28;20094;-55
2023/05/18 02:57:19;;;;;;;179.95;9.13;;;;;;;;;;5018745;28;20379;-53
2023/05/18 02:59:44;;;;;;;162.70;8.27;;;;;;;;;;5017236;28;20472;-54
2023/05/18 03:02:13;;;;;;;137.80;7.43;;;;;;;;;;5021586;28;20037;-53
2023/05/18 03:04:38;;;;;;;143.43;7.88;;;;;;;;;;5020124;28;20313;-53
2023/05/18 03:07:03;;;;;;;136.20;7.47;;;;;;;;;;5021111;28;20059;-54
2023/05/18 03:09:28;;;;;;;164.02;8.10;;;;;;;;;;5019867;28;20252;-55
2023/05/18 03:11:54;;;;;;;187.80;9.35;;;;;;;;;;5015992;28;20033;-52
2023/05/18 03:14:19;;;;;;;166.23;8.87;;;;;;;;;;5021291;28;20056;-54
2023/05/18 03:16:44;;;;;;;182.45;8.68;;;;;;;;;;5019444;28;20277;-54
2023/05/18 03:19:09;;;;;;;127.23;7.40;;;;;;;;;;5018577;28;20052;-55
2023/05/18 03:21:35;;;;;;;126.73;7.40;;;;;;;;;;5020424;28;20357;-55
2023/05/18 03:24:01;;;;;;;183.35;8.65;;;;;;;;;;5018457;28;20347;-54
2023/05/18 03:26:29;;;;;;;147.80;7.80;;;;;;;;;;5016274;28;20069;-54
2023/05/18 03:28:54;;;;;;;167.27;8.40;;;;;;;;;;5014555;28;20044;-53
2023/05/18 03:31:20;;;;;;;171.25;8.52;;;;;;;;;;5018072;28;20034;-53
2023/05/18 03:33:45;;;;;;;236.20;10.95;;;;;;;;;;5019122;28;20036;-56
2023/05/18 03:36:11;;;;;;;170.63;8.90;;;;;;;;;;5017305;28;20029;-54
2023/05/18 03:38:37;;;;;;;123.43;6.72;;;;;;;;;;5017462;28;20276;-52
2023/05/18 03:41:02;;;;;;;111.43;6.68;;;;;;;;;;5018613;28;20487;-51
2023/05/18 03:43:28;;;;;;;151.63;8.30;;;;;;;;;;5018613;28;20545;-52
2023/05/18 03:45:53;;;;;;;153.88;7.93;;;;;;;;;;5019688;28;20044;-54
2023/05/18 03:48:19;;;;;;;144.20;7.60;;;;;;;;;;5017846;28;20838;-52
2023/05/18 03:50:45;;;;;;;148.50;7.85;;;;;;;;;;5016185;28;20029;-55
2023/05/18 03:53:11;;;;;;;151.10;8.05;;;;;;;;;;5016285;28;20056;-54
2023/05/18 03:55:36;;;;;;;154.40;7.47;;;;;;;;;;5013273;28;20034;-54
2023/05/18 03:58:02;;;;;;;91.05;6.30;;;;;;;;;;5015524;28;20087;-52
2023/05/18 04:00:27;;;;;;;158.50;8.43;;;;;;;;;;5015517;28;20061;-54
2023/05/18 04:02:52;;;;;;;184.02;8.77;;;;;;;;;;5018837;28;20026;-53
2023/05/18 04:05:18;;;;;;;148.20;7.93;;;;;;;;;;5014051;28;20026;-55
2023/05/18 04:07:45;;;;;;;156.05;8.05;;;;;;;;;;5017921;28;20014;-53
2023/05/18 04:10:10;;;;;;;160.85;8.05;;;;;;;;;;5016459;28;20029;-52
2023/05/18 04:12:36;;;;;;;137.25;7.50;;;;;;;;;;5020911;28;20080;-53
2023/05/18 04:15:02;;;;;;;147.95;7.88;;;;;;;;;;5016539;28;20391;-59
2023/05/18 04:17:28;;;;;;;146.32;7.70;;;;;;;;;;5017593;28;20033;-54
2023/05/18 04:19:53;;;;;;;141.77;7.57;;;;;;;;;;5018209;28;20075;-55
2023/05/18 04:22:20;;;;;;;169.43;7.97;;;;;;;;;;5018058;28;20653;-55
2023/05/18 04:24:46;;;;;;;150.43;7.95;;;;;;;;;;5019015;28;20029;-52
2023/05/18 04:27:12;;;;;;;135.13;6.90;;;;;;;;;;5016376;28;20044;-52
2023/05/18 04:29:38;;;;;;;130.68;6.88;;;;;;;;;;5015397;28;20022;-52
2023/05/18 04:32:07;;;;;;;145.25;7.28;;;;;;;;;;5016596;28;20037;-54
2023/05/18 04:34:34;;;;;;;139.48;7.20;;;;;;;;;;5018265;28;20029;-53
2023/05/18 04:37:01;;;;;;;125.35;6.55;;;;;;;;;;5012960;28;20029;-56
2023/05/18 04:39:27;;;;;;;135.23;7.00;;;;;;;;;;5015146;28;20602;-54
2023/05/18 04:41:58;;;;;;;219.93;9.75;;;;;;;;;;5020212;28;20055;-54
2023/05/18 04:44:27;;;;;;;147.13;7.67;;;;;;;;;;5014287;28;20056;-55
2023/05/18 04:46:53;;;;;;;167.23;8.15;;;;;;;;;;5011943;28;20029;-55
2023/05/18 04:49:21;;;;;;;160.88;7.75;;;;;;;;;;5016462;28;20021;-55
2023/05/18 04:51:54;;;;;;;166.27;8.07;;;;;;;;;;5014901;28;20124;-55
2023/05/18 04:54:20;;;;;;;133.43;7.10;;;;;;;;;;5012565;28;20036;-55
2023/05/18 04:56:46;;;;;;;145.18;7.03;;;;;;;;;;5016985;28;20033;-54
2023/05/18 04:59:11;;;;;;;167.52;8.02;;;;;;;;;;5013013;28;20455;-53
2023/05/18 05:01:36;;;;;;;111.95;6.57;;;;;;;;;;5010443;28;20043;-53
2023/05/18 05:04:02;;;;;;;133.23;6.78;;;;;;;;;;5013514;28;20628;-54
2023/05/18 05:06:27;;;;;;;140.45;7.00;;;;;;;;;;5016000;28;20067;-53
2023/05/18 05:08:53;;;;;;;142.27;7.85;;;;;;;;;;5016350;28;20443;-53
2023/05/18 05:11:18;;;;;;;135.50;7.30;;;;;;;;;;5015032;28;20065;-52
2023/05/18 05:13:43;;;;;;;162.02;8.23;;;;;;;;;;5016795;28;20090;-54
2023/05/18 05:16:08;;;;;;;123.10;6.67;;;;;;;;;;5015001;28;20030;-54
2023/05/18 05:18:34;;;;;;;143.50;6.93;;;;;;;;;;5016863;28;20355;-52
2023/05/18 05:20:59;;;;;;;107.07;6.38;;;;;;;;;;5016208;28;20112;-54
2023/05/18 05:23:24;;;;;;;133.32;7.35;;;;;;;;;;5016124;28;20036;-55
2023/05/18 05:25:50;;;;;;;151.40;7.68;;;;;;;;;;5012467;28;20030;-52
2023/05/18 05:28:15;;;;;;;118.90;6.70;;;;;;;;;;5016689;28;20033;-52
2023/05/18 05:30:40;;;;;;;115.53;6.55;;;;;;;;;;5017490;28;20675;-54
2023/05/18 05:33:06;;;;;;;122.85;6.75;;;;;;;;;;5015808;28;20074;-53
2023/05/18 05:35:31;;;;;;;131.77;7.07;;;;;;;;;;5016259;28;20053;-52
2023/05/18 05:37:57;;;;;;;131.95;7.32;;;;;;;;;;5016951;28;20068;-55
2023/05/18 05:40:22;;;;;;;133.43;7.20;;;;;;;;;;5012951;28;20029;-56
2023/05/18 05:42:47;;;;;;;127.23;6.23;;;;;;;;;;5016219;28;20542;-55
2023/05/18 05:45:12;;;;;;;131.60;7.00;;;;;;;;;;5016532;28;20261;-55
2023/05/18 05:47:38;;;;;;;114.47;6.43;;;;;;;;;;5015471;28;20017;-55
2023/05/18 05:50:03;;;;;;;106.40;5.37;;;;;;;;;;5016789;28;20331;-55
2023/05/18 05:52:29;;;;;;;104.10;6.38;;;;;;;;;;5015431;28;20283;-55
2023/05/18 05:54:54;;;;;;;104.90;5.97;;;;;;;;;;5012425;28;20065;-53
2023/05/18 05:57:20;;;;;;;130.40;7.15;;;;;;;;;;5012991;28;20035;-52
2023/05/18 05:59:45;;;;;;;112.38;6.18;;;;;;;;;;5016370;28;20469;-53
2023/05/18 06:02:11;;;;;;;85.07;5.47;;;;;;;;;;5012842;28;20056;-56
2023/05/18 06:04:36;;;;;;;131.80;7.13;;;;;;;;;;5014230;28;20521;-54
2023/05/18 06:07:01;;;;;;;93.70;5.87;;;;;;;;;;5014102;28;20033;-53
2023/05/18 06:09:26;;;;;;;131.85;7.25;;;;;;;;;;5015717;28;20391;-54
2023/05/18 06:11:52;;;;;;;165.48;8.05;;;;;;;;;;5014278;28;20029;-55
2023/05/18 06:14:17;;;;;;;111.80;6.68;;;;;;;;;;5013694;28;20681;-54
2023/05/18 06:16:42;;;;;;;112.10;6.80;;;;;;;;;;5018917;28;20048;-55
2023/05/18 06:19:07;;;;;;;104.50;6.23;;;;;;;;;;5020407;28;20035;-53
2023/05/18 06:21:33;;;;;;;105.40;5.97;;;;;;;;;;5019803;28;20304;-52
2023/05/18 06:24:00;;;;;;;142.63;7.55;;;;;;;;;;5018697;28;20111;-56
2023/05/18 06:26:25;;;;;;;103.18;5.90;;;;;;;;;;5019974;28;20050;-53
2023/05/18 06:28:50;;;;;;;96.93;6.23;;;;;;;;;;5019535;28;20810;-53
2023/05/18 06:31:17;;;;;;;112.43;6.53;;;;;;;;;;5020805;28;20272;-57
2023/05/18 06:33:42;;;;;;;142.80;7.60;;;;;;;;;;5015935;28;20269;-55
2023/05/18 06:36:08;;;;;;;115.13;6.50;;;;;;;;;;5019875;28;20037;-56
2023/05/18 06:38:33;;;;;;;101.22;6.28;;;;;;;;;;5023206;28;20033;-56
2023/05/18 06:40:58;;;;;;;92.20;5.90;;;;;;;;;;5024742;28;20075;-56
2023/05/18 06:43:27;;;;;;;135.73;7.43;;;;;;;;;;5017996;28;20742;-56
2023/05/18 06:45:53;;;;;;;93.63;6.13;;;;;;;;;;5018859;28;20025;-53
2023/05/18 06:48:18;;;;;;;105.38;6.35;;;;;;;;;;5020550;28;20040;-54
2023/05/18 06:50:43;;;;;;;92.50;5.90;;;;;;;;;;5018274;28;20049;-56
2023/05/18 06:53:08;;;;;;;87.23;5.73;;;;;;;;;;5016687;28;20037;-55
2023/05/18 06:55:34;;;;;;;108.83;6.70;;;;;;;;;;5019943;28;20041;-56
2023/05/18 06:57:59;;;;;;;87.50;5.70;;;;;;;;;;5014519;28;20326;-54
2023/05/18 07:00:24;;;;;;;88.30;5.72;;;;;;;;;;5015393;28;20362;-55
2023/05/18 07:02:49;;;;;;;143.73;8.10;;;;;;;;;;5015598;28;20026;-56
2023/05/18 07:05:15;;;;;;;102.70;6.47;;;;;;;;;;5019155;28;20965;-53
2023/05/18 07:07:41;;;;;;;121.32;6.53;;;;;;;;;;5017834;28;20751;-53
2023/05/18 07:10:06;;;;;;;112.25;6.45;;;;;;;;;;5017863;28;20133;-56
2023/05/18 07:12:32;;;;;;;105.57;6.15;;;;;;;;;;5022828;28;20026;-55
2023/05/18 07:14:57;;;;;;;90.63;5.88;;;;;;;;;;5019317;28;20022;-56
2023/05/18 07:17:22;;;;;;;94.63;5.87;;;;;;;;;;5026568;28;20537;-53
2023/05/18 07:19:47;;;;;;;87.70;5.50;;;;;;;;;;5025186;28;20251;-54
2023/05/18 07:22:13;;;;;;;106.57;6.30;;;;;;;;;;5024167;28;20037;-53
2023/05/18 07:24:38;;;;;;;102.95;6.38;;;;;;;;;;5023334;28;20029;-53
2023/05/18 07:27:04;;;;;;;137.25;7.60;;;;;;;;;;5009378;28;20049;-55
2023/05/18 07:29:29;;;;;;;163.13;8.75;;;;;;;;;;5015241;28;20057;-53
2023/05/18 07:31:54;;;;;;;106.30;6.25;;;;;;;;;;5014652;28;20030;-56
2023/05/18 07:34:20;;;;;;;102.05;5.60;;;;;;;;;;5016850;28;20033;-56
2023/05/18 07:36:45;;;;;;;110.90;6.78;;;;;;;;;;5015261;28;20037;-58
2023/05/18 07:39:17;;;;;;;87.35;5.57;;;;;;;;;;5023125;28;20096;-57
2023/05/18 07:41:42;;;;;;;139.50;7.63;;;;;;;;;;5017697;28;20131;-56
2023/05/18 07:44:07;;;;;;;225.88;11.20;;;;;;;;;;5015741;28;20025;-55
2023/05/18 07:46:32;;;;;;;90.03;6.10;;;;;;;;;;5014413;28;20411;-55
2023/05/18 07:48:57;;;;;;;93.77;6.10;;;;;;;;;;5010656;28;20543;-57
2023/05/18 07:51:23;;;;;;;97.43;5.77;;;;;;;;;;5012751;28;20112;-57
2023/05/18 07:53:48;;;;;;;201.17;9.97;;;;;;;;;;5017467;28;21022;-56
2023/05/18 07:56:13;;;;;;;159.97;7.90;;;;;;;;;;5014630;28;20283;-58
2023/05/18 07:58:39;;;;;;;160.38;8.27;;;;;;;;;;5015920;28;20819;-56
2023/05/18 08:01:04;;;;;;;176.02;9.10;;;;;;;;;;5010564;28;20052;-57
2023/05/18 08:03:30;;;;;;;149.37;7.67;;;;;;;;;;5010756;28;20025;-58
2023/05/18 08:05:55;;;;;;;157.77;8.27;;;;;;;;;;5015136;28;20423;-54
2023/05/18 08:08:20;;;;;;;179.48;8.98;;;;;;;;;;5020291;28;20025;-55
2023/05/18 08:10:46;;;;;;;166.85;8.73;;;;;;;;;;5014770;28;20525;-57
2023/05/18 08:13:11;;;;;;;182.10;8.67;;;;;;;;;;5010676;28;20041;-54
2023/05/18 08:15:37;;;;;;;177.03;8.90;;;;;;;;;;5009444;28;20284;-55
2023/05/18 08:18:03;;;;;;;146.05;7.85;;;;;;;;;;5009214;28;20029;-56
2023/05/18 08:20:31;;;;;;;142.88;7.80;;;;;;;;;;5013106;28;20037;-56
2023/05/18 08:22:56;;;;;;;127.22;6.90;;;;;;;;;;5016200;28;20022;-57
2023/05/18 08:25:22;;;;;;;123.00;7.13;;;;;;;;;;5014054;28;20363;-54
2023/05/18 08:27:47;;;;;;;133.55;7.13;;;;;;;;;;5014637;28;20076;-53
2023/05/18 08:30:13;;;;;;;111.55;6.82;;;;;;;;;;5014071;28;20025;-54
2023/05/18 08:32:38;;;;;;;104.68;5.93;;;;;;;;;;5011501;28;20014;-55
2023/05/18 08:35:03;;;;;;;94.07;5.43;;;;;;;;;;5011647;28;20657;-57
2023/05/18 08:37:29;;;;;;;104.20;6.13;;;;;;;;;;5013702;28;20127;-58
2023/05/18 08:39:55;;;;;;;117.53;7.00;;;;;;;;;;5013830;28;20024;-54
2023/05/18 08:42:22;;;;;;;85.20;5.55;;;;;;;;;;5012170;28;20044;-54
2023/05/18 08:44:54;;;;;;;113.72;6.25;;;;;;;;;;5010763;28;20714;-56
2023/05/18 08:47:24;;;;;;;;;;;;;;;;;;5014062;28;20758;-57
2023/05/18 08:49:50;;;;;;;118.60;6.70;;;;;;;;;;5012279;28;19909;-56
2023/05/18 08:52:16;;;;;;;133.55;7.20;;;;;;;;;;5013490;28;20029;-57
2023/05/18 08:54:42;;;;;;;127.15;6.38;;;;;;;;;;5014034;28;20129;-55
2023/05/18 08:57:09;;;;;;;115.32;6.35;;;;;;;;;;5011605;28;20050;-59
2023/05/18 08:59:38;;;;;;;140.25;7.47;;;;;;;;;;5012947;28;20029;-55
2023/05/18 09:02:03;;;;;;;99.82;5.88;;;;;;;;;;5011539;28;20122;-57
2023/05/18 09:04:30;;;;;;;100.57;6.00;;;;;;;;;;5014645;28;20135;-55
2023/05/18 09:06:58;;;;;;;135.23;7.20;;;;;;;;;;5006873;28;20033;-53
2023/05/18 09:09:24;;;;;;;151.77;7.75;;;;;;;;;;5009500;28;20037;-55
2023/05/18 09:11:49;;;;;;;168.13;8.38;;;;;;;;;;5010923;28;20064;-52
2023/05/18 09:14:15;;;;;;;124.97;6.75;;;;;;;;;;5014690;28;20021;-53
2023/05/18 09:16:40;;;;;;;116.20;6.23;;;;;;;;;;5008728;28;20030;-55
2023/05/18 09:19:05;;;;;;;117.97;6.63;;;;;;;;;;5012658;28;20256;-53
2023/05/18 09:21:31;;;;;;;100.72;5.60;;;;;;;;;;5010360;28;20664;-54
2023/05/18 09:23:58;;;;;;;147.65;7.60;;;;;;;;;;5013687;28;20037;-53
2023/05/18 09:26:23;;;;;;;100.82;5.40;;;;;;;;;;5015445;28;20128;-52
2023/05/18 09:28:51;;;;;;;119.07;6.20;;;;;;;;;;5016781;28;20092;-54
2023/05/18 09:31:17;;;;;;;154.15;7.93;;;;;;;;;;5011562;28;20049;-54
2023/05/18 09:33:43;;;;;;;196.07;9.50;;;;;;;;;;5011631;28;20099;-54
2023/05/18 09:36:08;;;;;;;136.27;6.78;;;;;;;;;;5011593;28;20046;-56
2023/05/18 09:38:38;;;;;;;110.00;6.15;;;;;;;;;;5011902;28;20030;-55
2023/05/18 09:41:08;;;;;;;134.32;7.00;;;;;;;;;;5013248;28;20041;-53
2023/05/18 09:43:34;;;;;;;191.82;8.57;;;;;;;;;;5015794;28;20035;-56
2023/05/18 09:46:04;;;;;;;152.45;7.47;;;;;;;;;;5010835;28;20125;-56
2023/05/18 09:48:29;;;;;;;159.25;7.75;;;;;;;;;;5011707;28;20036;-54
2023/05/18 09:50:57;;;;;;;145.87;7.53;;;;;;;;;;5018236;28;20037;-54
2023/05/18 09:53:22;;;;;;;154.23;7.88;;;;;;;;;;5013895;28;20902;-57
2023/05/18 09:55:48;;;;;;;175.33;8.57;;;;;;;;;;5016748;28;20038;-59
2023/05/18 09:58:14;;;;;;;181.48;8.30;;;;;;;;;;5016465;28;20706;-57
2023/05/18 10:00:41;;;;;;;175.80;8.27;;;;;;;;;;5014864;28;20042;-60
2023/05/18 10:03:15;;;;;;;176.45;8.48;;;;;;;;;;5014338;28;20483;-58
2023/05/18 10:05:40;;;;;;;169.35;8.32;;;;;;;;;;5018095;28;20029;-57
2023/05/18 10:08:06;;;;;;;183.82;8.75;;;;;;;;;;5012139;28;20030;-58
2023/05/18 10:10:31;;;;;;;165.05;8.05;;;;;;;;;;5014096;28;20041;-59
2023/05/18 10:12:57;;;;;;;160.57;8.05;;;;;;;;;;5016873;28;20141;-59
2023/05/18 10:15:23;;;;;;;193.13;9.25;;;;;;;;;;5012851;28;20025;-56
2023/05/18 10:17:49;;;;;;;168.70;7.93;;;;;;;;;;5015038;28;20443;-54
2023/05/18 10:20:18;;;;;;;179.20;8.00;;;;;;;;;;5017043;28;20563;-58
2023/05/18 10:22:45;;;;;;;180.20;8.68;;;;;;;;;;5015948;28;20107;-54
2023/05/18 10:25:10;;;;;;;156.57;7.47;;;;;;;;;;5016181;28;20071;-57
2023/05/18 10:27:36;;;;;;;177.20;8.70;;;;;;;;;;5017490;28;20017;-57
2023/05/18 10:30:02;;;;;;;171.57;8.52;;;;;;;;;;5013389;28;20053;-57
2023/05/18 10:32:31;;;;;;;165.50;8.00;;;;;;;;;;5017823;28;20076;-57
2023/05/18 10:34:57;;;;;;;195.30;9.02;;;;;;;;;;5012385;28;20029;-57
2023/05/18 10:37:23;;;;;;;218.98;9.77;;;;;;;;;;5013677;28;20299;-57
2023/05/18 10:39:49;;;;;;;203.52;9.82;;;;;;;;;;5018395;28;20024;-60
2023/05/18 10:42:16;;;;;;;172.15;8.30;;;;;;;;;;5010942;28;20037;-60
2023/05/18 10:44:41;;;;;;;158.02;7.60;;;;;;;;;;5013510;28;20041;-58
2023/05/18 10:47:07;;;;;;;149.05;7.35;;;;;;;;;;5013442;28;20030;-56
2023/05/18 10:49:32;;;;;;;127.43;6.43;;;;;;;;;;5016195;28;20029;-55
2023/05/18 10:51:58;;;;;;;149.43;7.75;;;;;;;;;;5012285;28;20265;-54
2023/05/18 10:54:24;;;;;;;112.97;6.10;;;;;;;;;;5013831;28;20642;-54
2023/05/18 10:56:50;;;;;;;132.70;6.82;;;;;;;;;;5015955;28;20539;-55
2023/05/18 10:59:17;;;;;;;147.75;7.57;;;;;;;;;;5013224;28;20034;-56
2023/05/18 11:01:43;;;;;;;114.35;6.20;;;;;;;;;;5015559;28;20081;-58
2023/05/18 11:04:08;;;;;;;143.77;7.38;;;;;;;;;;5018351;28;20119;-58
2023/05/18 11:06:34;;;;;;;127.93;6.85;;;;;;;;;;5015211;28;20033;-56
2023/05/18 11:09:00;;;;;;;101.65;5.78;;;;;;;;;;5016054;28;20854;-56
2023/05/18 11:11:28;;;;;;;144.50;7.15;;;;;;;;;;5014887;28;20060;-57
2023/05/18 11:13:58;;;;;;;184.88;8.68;;;;;;;;;;5016006;28;20017;-54
2023/05/18 11:16:31;;;;;;;156.75;7.57;;;;;;;;;;5014467;28;20516;-55
2023/05/18 11:19:03;;;;;;;106.15;6.10;;;;;;;;;;5011467;28;20037;-55
2023/05/18 11:21:31;;;;;;;146.73;7.25;;;;;;;;;;5018526;28;20041;-55
2023/05/18 11:26:36;;;;;;;160.00;9.55;;;;;;;;;;5235463;23;21018;-59
2023/05/18 11:29:14;;;;;;;194.23;10.93;;;;;;;;;;4957837;28;20031;-60
2023/05/18 11:31:50;;;;;;;128.73;7.55;;;;;;;;;;4960141;28;20603;-60
2023/05/18 11:34:35;;;;;;;145.40;8.20;;;;;;;;;;4963084;28;20082;-59
2023/05/18 11:37:00;;;;;;;108.20;6.82;;;;;;;;;;4967529;28;20031;-59
2023/05/18 11:39:26;;;;;;;121.87;7.10;;;;;;;;;;4968941;28;20331;-61
2023/05/18 11:42:07;;;;;;;295.33;15.55;;;;;;;;;;4953592;28;20309;-60
2023/05/18 11:44:33;;;;;;;97.75;6.45;;;;;;;;;;4966526;28;20101;-60
2023/05/18 11:46:58;;;;;;;82.22;5.78;;;;;;;;;;4966612;28;20037;-58
2023/05/18 11:49:31;;;;;;;115.50;7.05;;;;;;;;;;4967541;28;20026;-57
2023/05/18 11:52:15;;;;;;;116.28;6.85;;;;;;;;;;4967035;28;20097;-59
2023/05/18 11:54:43;;;;;;;80.68;5.45;;;;;;;;;;4965733;28;20221;-61
2023/05/18 11:57:09;;;;;;;74.72;5.10;;;;;;;;;;4967454;28;20034;-59
2023/05/18 11:59:38;;;;;;;124.40;7.40;;;;;;;;;;4966498;28;20018;-60
2023/05/18 12:02:03;;;;;;;97.28;6.25;;;;;;;;;;4967905;28;20031;-60
2023/05/18 12:04:30;;;;;;;94.35;6.22;;;;;;;;;;4966504;28;20460;-59
2023/05/18 12:06:56;;;;;;;89.85;6.05;;;;;;;;;;4966493;28;20696;-59
2023/05/18 12:09:21;;;;;;;114.72;7.13;;;;;;;;;;4966607;28;20061;-58
2023/05/18 12:11:47;;;;;;;121.63;7.22;;;;;;;;;;4964353;28;20541;-58
2023/05/18 12:14:12;;;;;;;114.77;6.73;;;;;;;;;;4965701;28;20034;-60
2023/05/18 12:16:41;;;;;;;128.27;7.60;;;;;;;;;;4965982;28;20039;-59
2023/05/18 12:19:07;;;;;;;143.88;8.32;;;;;;;;;;4967465;28;20050;-59
2023/05/18 12:21:35;;;;;;;154.05;8.45;;;;;;;;;;4963818;28;20122;-59
2023/05/18 12:24:01;;;;;;;98.00;6.20;;;;;;;;;;4969620;28;20073;-59
2023/05/18 12:26:27;;;;;;;96.07;6.00;;;;;;;;;;4964867;28;20551;-60
2023/05/18 12:28:53;;;;;;;133.70;7.65;;;;;;;;;;4966060;28;20029;-59
2023/05/18 12:31:18;;;;;;;137.07;7.63;;;;;;;;;;4958760;28;20046;-59
2023/05/18 12:33:44;;;;;;;135.30;7.63;;;;;;;;;;4965783;28;20022;-59
2023/05/18 12:36:10;;;;;;;137.20;7.45;;;;;;;;;;4962108;28;20039;-60
2023/05/18 12:38:35;;;;;;;116.15;6.35;;;;;;;;;;4965187;28;20113;-60
2023/05/18 12:41:01;;;;;;;113.30;6.63;;;;;;;;;;4963745;28;20030;-60
2023/05/18 12:43:26;;;;;;;137.00;7.65;;;;;;;;;;4965559;28;20305;-58
2023/05/18 12:45:51;;;;;;;125.78;7.40;;;;;;;;;;4963930;28;20039;-57
2023/05/18 12:48:16;;;;;;;109.72;6.28;;;;;;;;;;4966910;28;20034;-59
2023/05/18 12:50:49;;;;;;;140.13;7.82;;;;;;;;;;4965732;28;20038;-61
2023/05/18 12:53:15;;;;;;;140.80;7.85;;;;;;;;;;4967034;28;20038;-59
2023/05/18 12:55:40;;;;;;;147.38;8.07;;;;;;;;;;4965907;28;20466;-60
2023/05/18 12:58:13;;;;;;;127.80;7.27;;;;;;;;;;4951772;28;20560;-59
2023/05/18 13:00:41;;;;;;;143.77;7.85;;;;;;;;;;4967586;28;20798;-57
2023/05/18 13:03:08;;;;;;;140.95;7.90;;;;;;;;;;4965779;28;20150;-60
2023/05/18 13:05:33;;;;;;;143.05;7.78;;;;;;;;;;4963654;28;20519;-57
2023/05/18 13:07:58;;;;;;;146.82;7.70;;;;;;;;;;4966974;28;20031;-60
2023/05/18 13:10:23;;;;;;;110.77;6.63;;;;;;;;;;4966451;28;20462;-60
2023/05/18 13:12:49;;;;;;;126.45;7.18;;;;;;;;;;4964883;28;20077;-60
2023/05/18 13:15:15;;;;;;;126.65;7.28;;;;;;;;;;4963634;28;20031;-59
2023/05/18 13:17:47;;;;;;;138.77;8.00;;;;;;;;;;4966397;28;20022;-58
2023/05/18 13:20:14;;;;;;;145.90;7.78;;;;;;;;;;4963475;28;20089;-59
2023/05/18 13:22:39;;;;;;;134.10;7.22;;;;;;;;;;4964927;28;20076;-59
2023/05/18 13:25:05;;;;;;;195.35;9.80;;;;;;;;;;4968937;28;20026;-57
2023/05/18 13:27:30;;;;;;;120.55;6.75;;;;;;;;;;4967737;28;20185;-61
2023/05/18 13:29:58;;;;;;;126.97;7.03;;;;;;;;;;4952830;28;20507;-60
2023/05/18 13:32:23;;;;;;;110.35;6.57;;;;;;;;;;4969974;28;20125;-59
2023/05/18 13:34:48;;;;;;;176.40;9.52;;;;;;;;;;4970125;28;20419;-58
2023/05/18 13:37:14;;;;;;;127.60;7.47;;;;;;;;;;4968885;28;20043;-60
2023/05/18 13:39:39;;;;;;;112.32;6.78;;;;;;;;;;4970912;28;20274;-60
2023/05/18 13:42:06;;;;;;;142.87;8.30;;;;;;;;;;4968192;28;20118;-60
2023/05/18 13:44:31;;;;;;;132.15;7.32;;;;;;;;;;4970493;28;20708;-61
2023/05/18 13:46:56;;;;;;;131.45;7.18;;;;;;;;;;4969038;28;20097;-60
2023/05/18 13:49:21;;;;;;;123.70;7.00;;;;;;;;;;4969839;28;20452;-60
2023/05/18 13:51:47;;;;;;;134.13;7.68;;;;;;;;;;4968443;28;20269;-59
2023/05/18 13:54:12;;;;;;;118.05;6.82;;;;;;;;;;4969268;28;20467;-61
2023/05/18 13:56:38;;;;;;;134.52;7.50;;;;;;;;;;4966070;28;20094;-58
2023/05/18 13:59:03;;;;;;;116.60;6.80;;;;;;;;;;4967947;28;20102;-61
2023/05/18 14:01:31;;;;;;;89.20;5.77;;;;;;;;;;4968616;28;20285;-58
2023/05/18 14:03:56;;;;;;;77.82;5.28;;;;;;;;;;4970962;28;20269;-61
2023/05/18 14:06:22;;;;;;;95.38;5.85;;;;;;;;;;4969195;28;20035;-59
2023/05/18 14:08:47;;;;;;;93.15;5.95;;;;;;;;;;4970659;28;20045;-60
2023/05/18 14:11:12;;;;;;;84.93;5.37;;;;;;;;;;4969669;28;20181;-60
2023/05/18 14:13:37;;;;;;;111.07;6.67;;;;;;;;;;4967089;28;20092;-59
2023/05/18 14:16:03;;;;;;;90.67;5.73;;;;;;;;;;4967516;28;20038;-60